sensor_id;sensor_type;location;lat;lon;timestamp;P1;durP1;ratioP1;P2;durP2;ratioP2
5620;SDS011;2832;50.864;12.186;2022-09-09T00:01:32;0.90;;;0.90;;
5620;SDS011;2832;50.864;12.186;2022-09-09T00:04:09;0.80;;;0.80;;
5620;SDS011;2832;50.864;12.186;2022-09-09T00:06:46;0.77;;;0.77;;
5620;SDS011;2832;50.864;12.186;2022-09-09T00:09:23;0.80;;;0.80;;
5620;SDS011;2832;50.864;12.186;2022-09-09T00:11:58;0.80;;;0.80;;
5620;SDS011;2832;50.864;12.186;2022-09-09T00:14:40;0.80;;;0.80;;
5620;SDS011;2832;50.864;12.186;2022-09-09T00:17:36;0.80;;;0.80;;
5620;SDS011;2832;50.864;12.186;2022-09-09T00:20:11;0.80;;;0.80;;
5620;SDS011;2832;50.864;12.186;2022-09-09T00:22:45;0.80;;;0.80;;
5620;SDS011;2832;50.864;12.186;2022-09-09T00:25:22;0.70;;;0.70;;
5620;SDS011;2832;50.864;12.186;2022-09-09T00:28:07;0.80;;;0.80;;
5620;SDS011;2832;50.864;12.186;2022-09-09T00:30:45;0.80;;;0.80;;
5620;SDS011;2832;50.864;12.186;2022-09-09T00:33:28;0.83;;;0.83;;
5620;SDS011;2832;50.864;12.186;2022-09-09T00:36:03;0.80;;;0.80;;
5620;SDS011;2832;50.864;12.186;2022-09-09T00:38:45;0.80;;;0.80;;
5620;SDS011;2832;50.864;12.186;2022-09-09T00:41:19;0.80;;;0.80;;
5620;SDS011;2832;50.864;12.186;2022-09-09T00:44:15;0.80;;;0.80;;
5620;SDS011;2832;50.864;12.186;2022-09-09T00:47:04;0.80;;;0.80;;
5620;SDS011;2832;50.864;12.186;2022-09-09T00:49:53;0.90;;;0.90;;
5620;SDS011;2832;50.864;12.186;2022-09-09T00:52:36;0.80;;;0.80;;
5620;SDS011;2832;50.864;12.186;2022-09-09T00:55:13;0.80;;;0.80;;
5620;SDS011;2832;50.864;12.186;2022-09-09T00:57:50;0.80;;;0.80;;
5620;SDS011;2832;50.864;12.186;2022-09-09T01:00:22;0.90;;;0.90;;
5620;SDS011;2832;50.864;12.186;2022-09-09T01:02:59;0.90;;;0.90;;
5620;SDS011;2832;50.864;12.186;2022-09-09T01:05:46;0.80;;;0.80;;
5620;SDS011;2832;50.864;12.186;2022-09-09T01:08:41;0.80;;;0.80;;
5620;SDS011;2832;50.864;12.186;2022-09-09T01:11:35;0.80;;;0.80;;
5620;SDS011;2832;50.864;12.186;2022-09-09T01:14:13;0.80;;;0.80;;
5620;SDS011;2832;50.864;12.186;2022-09-09T01:16:47;0.90;;;0.90;;
5620;SDS011;2832;50.864;12.186;2022-09-09T01:19:18;0.83;;;0.83;;
5620;SDS011;2832;50.864;12.186;2022-09-09T01:22:12;0.80;;;0.80;;
5620;SDS011;2832;50.864;12.186;2022-09-09T01:28:42;0.87;;;0.87;;
5620;SDS011;2832;50.864;12.186;2022-09-09T01:31:37;0.70;;;0.70;;
5620;SDS011;2832;50.864;12.186;2022-09-09T01:34:46;0.80;;;0.80;;
5620;SDS011;2832;50.864;12.186;2022-09-09T01:37:28;0.90;;;0.90;;
5620;SDS011;2832;50.864;12.186;2022-09-09T01:40:13;0.90;;;0.90;;
5620;SDS011;2832;50.864;12.186;2022-09-09T01:42:45;0.80;;;0.80;;
5620;SDS011;2832;50.864;12.186;2022-09-09T01:45:39;0.80;;;0.80;;
5620;SDS011;2832;50.864;12.186;2022-09-09T01:48:19;0.90;;;0.90;;
5620;SDS011;2832;50.864;12.186;2022-09-09T01:51:00;0.90;;;0.90;;
5620;SDS011;2832;50.864;12.186;2022-09-09T01:56:37;0.80;;;0.80;;
5620;SDS011;2832;50.864;12.186;2022-09-09T01:59:40;0.80;;;0.80;;
5620;SDS011;2832;50.864;12.186;2022-09-09T02:02:43;0.90;;;0.90;;
5620;SDS011;2832;50.864;12.186;2022-09-09T02:08:15;0.80;;;0.80;;
5620;SDS011;2832;50.864;12.186;2022-09-09T02:10:48;0.90;;;0.90;;
5620;SDS011;2832;50.864;12.186;2022-09-09T02:13:51;0.70;;;0.70;;
5620;SDS011;2832;50.864;12.186;2022-09-09T02:16:32;0.80;;;0.80;;
5620;SDS011;2832;50.864;12.186;2022-09-09T02:22:41;0.80;;;0.80;;
5620;SDS011;2832;50.864;12.186;2022-09-09T02:25:13;0.83;;;0.83;;
5620;SDS011;2832;50.864;12.186;2022-09-09T02:27:44;0.90;;;0.90;;
5620;SDS011;2832;50.864;12.186;2022-09-09T02:30:14;0.80;;;0.80;;
5620;SDS011;2832;50.864;12.186;2022-09-09T02:32:48;0.90;;;0.90;;
5620;SDS011;2832;50.864;12.186;2022-09-09T02:35:31;0.80;;;0.80;;
5620;SDS011;2832;50.864;12.186;2022-09-09T02:38:11;0.90;;;0.90;;
5620;SDS011;2832;50.864;12.186;2022-09-09T02:40:47;0.90;;;0.90;;
5620;SDS011;2832;50.864;12.186;2022-09-09T02:43:17;0.80;;;0.80;;
5620;SDS011;2832;50.864;12.186;2022-09-09T02:45:47;0.80;;;0.80;;
5620;SDS011;2832;50.864;12.186;2022-09-09T02:48:34;0.80;;;0.80;;
5620;SDS011;2832;50.864;12.186;2022-09-09T02:51:17;0.80;;;0.80;;
5620;SDS011;2832;50.864;12.186;2022-09-09T02:53:59;0.87;;;0.87;;
5620;SDS011;2832;50.864;12.186;2022-09-09T02:56:41;0.80;;;0.80;;
5620;SDS011;2832;50.864;12.186;2022-09-09T02:59:17;0.90;;;0.90;;
5620;SDS011;2832;50.864;12.186;2022-09-09T03:01:48;0.80;;;0.80;;
5620;SDS011;2832;50.864;12.186;2022-09-09T03:04:30;0.80;;;0.80;;
5620;SDS011;2832;50.864;12.186;2022-09-09T03:07:04;0.90;;;0.90;;
5620;SDS011;2832;50.864;12.186;2022-09-09T03:09:36;0.80;;;0.80;;
5620;SDS011;2832;50.864;12.186;2022-09-09T03:12:06;0.80;;;0.80;;
5620;SDS011;2832;50.864;12.186;2022-09-09T03:14:36;0.80;;;0.80;;
5620;SDS011;2832;50.864;12.186;2022-09-09T03:17:06;0.80;;;0.80;;
5620;SDS011;2832;50.864;12.186;2022-09-09T03:19:41;0.90;;;0.90;;
5620;SDS011;2832;50.864;12.186;2022-09-09T03:25:45;0.80;;;0.80;;
5620;SDS011;2832;50.864;12.186;2022-09-09T03:28:54;0.87;;;0.87;;
5620;SDS011;2832;50.864;12.186;2022-09-09T03:44:29;0.90;;;0.90;;
5620;SDS011;2832;50.864;12.186;2022-09-09T03:47:30;0.90;;;0.90;;
5620;SDS011;2832;50.864;12.186;2022-09-09T03:54:07;0.80;;;0.80;;
5620;SDS011;2832;50.864;12.186;2022-09-09T04:00:51;0.90;;;0.90;;
5620;SDS011;2832;50.864;12.186;2022-09-09T04:03:52;0.90;;;0.90;;
5620;SDS011;2832;50.864;12.186;2022-09-09T04:06:39;0.90;;;0.90;;
5620;SDS011;2832;50.864;12.186;2022-09-09T04:09:25;0.90;;;0.90;;
5620;SDS011;2832;50.864;12.186;2022-09-09T04:12:03;0.90;;;0.90;;
5620;SDS011;2832;50.864;12.186;2022-09-09T04:14:45;0.90;;;0.90;;
5620;SDS011;2832;50.864;12.186;2022-09-09T04:17:18;0.90;;;0.90;;
5620;SDS011;2832;50.864;12.186;2022-09-09T04:19:48;0.90;;;0.90;;
5620;SDS011;2832;50.864;12.186;2022-09-09T04:22:31;0.80;;;0.80;;
5620;SDS011;2832;50.864;12.186;2022-09-09T04:25:12;0.80;;;0.80;;
5620;SDS011;2832;50.864;12.186;2022-09-09T04:27:56;0.83;;;0.83;;
5620;SDS011;2832;50.864;12.186;2022-09-09T04:39:41;0.80;;;0.80;;
5620;SDS011;2832;50.864;12.186;2022-09-09T04:42:25;0.90;;;0.90;;
5620;SDS011;2832;50.864;12.186;2022-09-09T04:45:17;0.90;;;0.90;;
5620;SDS011;2832;50.864;12.186;2022-09-09T04:47:54;0.80;;;0.80;;
5620;SDS011;2832;50.864;12.186;2022-09-09T04:50:43;0.90;;;0.90;;
5620;SDS011;2832;50.864;12.186;2022-09-09T04:54:00;0.80;;;0.80;;
5620;SDS011;2832;50.864;12.186;2022-09-09T04:57:02;0.80;;;0.80;;
5620;SDS011;2832;50.864;12.186;2022-09-09T04:59:44;0.90;;;0.90;;
5620;SDS011;2832;50.864;12.186;2022-09-09T05:02:22;0.90;;;0.90;;
5620;SDS011;2832;50.864;12.186;2022-09-09T05:04:59;0.87;;;0.87;;
5620;SDS011;2832;50.864;12.186;2022-09-09T05:07:53;0.90;;;0.90;;
5620;SDS011;2832;50.864;12.186;2022-09-09T05:10:39;0.90;;;0.90;;
5620;SDS011;2832;50.864;12.186;2022-09-09T05:13:51;0.90;;;0.90;;
5620;SDS011;2832;50.864;12.186;2022-09-09T05:23:07;0.90;;;0.90;;
5620;SDS011;2832;50.864;12.186;2022-09-09T05:36:21;0.80;;;0.80;;
5620;SDS011;2832;50.864;12.186;2022-09-09T05:39:16;0.90;;;0.90;;
5620;SDS011;2832;50.864;12.186;2022-09-09T05:42:12;0.90;;;0.90;;
5620;SDS011;2832;50.864;12.186;2022-09-09T05:44:41;0.90;;;0.90;;
5620;SDS011;2832;50.864;12.186;2022-09-09T05:47:26;0.90;;;0.90;;
5620;SDS011;2832;50.864;12.186;2022-09-09T07:35:00;1.00;;;1.00;;
5620;SDS011;2832;50.864;12.186;2022-09-09T07:43:45;0.90;;;0.90;;
5620;SDS011;2832;50.864;12.186;2022-09-09T07:44:39;0.90;;;0.90;;
5620;SDS011;2832;50.864;12.186;2022-09-09T07:47:46;0.90;;;0.90;;
5620;SDS011;2832;50.864;12.186;2022-09-09T07:50:45;0.80;;;0.80;;
5620;SDS011;2832;50.864;12.186;2022-09-09T07:53:30;0.90;;;0.90;;
5620;SDS011;2832;50.864;12.186;2022-09-09T07:56:15;0.90;;;0.90;;
5620;SDS011;2832;50.864;12.186;2022-09-09T07:59:46;0.90;;;0.90;;
5620;SDS011;2832;50.864;12.186;2022-09-09T08:09:46;0.83;;;0.83;;
5620;SDS011;2832;50.864;12.186;2022-09-09T08:12:25;0.90;;;0.90;;
5620;SDS011;2832;50.864;12.186;2022-09-09T08:18:31;0.80;;;0.80;;
5620;SDS011;2832;50.864;12.186;2022-09-09T08:27:41;0.90;;;0.90;;
5620;SDS011;2832;50.864;12.186;2022-09-09T08:30:36;0.90;;;0.90;;
5620;SDS011;2832;50.864;12.186;2022-09-09T08:33:19;0.90;;;0.90;;
5620;SDS011;2832;50.864;12.186;2022-09-09T08:36:27;0.90;;;0.90;;
5620;SDS011;2832;50.864;12.186;2022-09-09T09:02:13;0.87;;;0.87;;
5620;SDS011;2832;50.864;12.186;2022-09-09T09:05:16;0.90;;;0.90;;
5620;SDS011;2832;50.864;12.186;2022-09-09T09:07:55;0.80;;;0.80;;
5620;SDS011;2832;50.864;12.186;2022-09-09T09:10:50;0.90;;;0.90;;
5620;SDS011;2832;50.864;12.186;2022-09-09T09:13:40;0.90;;;0.90;;
5620;SDS011;2832;50.864;12.186;2022-09-09T09:19:22;0.20;;;0.20;;
5620;SDS011;2832;50.864;12.186;2022-09-09T09:21:56;0.20;;;0.20;;
5620;SDS011;2832;50.864;12.186;2022-09-09T09:24:45;0.90;;;0.90;;
5620;SDS011;2832;50.864;12.186;2022-09-09T09:27:32;0.97;;;0.97;;
5620;SDS011;2832;50.864;12.186;2022-09-09T09:30:12;0.90;;;0.90;;
5620;SDS011;2832;50.864;12.186;2022-09-09T09:32:50;0.90;;;0.90;;
5620;SDS011;2832;50.864;12.186;2022-09-09T09:35:39;0.90;;;0.90;;
5620;SDS011;2832;50.864;12.186;2022-09-09T09:38:12;1.00;;;1.00;;
5620;SDS011;2832;50.864;12.186;2022-09-09T09:40:50;0.83;;;0.83;;
5620;SDS011;2832;50.864;12.186;2022-09-09T09:43:28;0.90;;;0.90;;
5620;SDS011;2832;50.864;12.186;2022-09-09T09:46:21;0.90;;;0.90;;
5620;SDS011;2832;50.864;12.186;2022-09-09T09:48:57;0.80;;;0.80;;
5620;SDS011;2832;50.864;12.186;2022-09-09T09:51:27;0.80;;;0.80;;
5620;SDS011;2832;50.864;12.186;2022-09-09T09:54:09;0.90;;;0.90;;
5620;SDS011;2832;50.864;12.186;2022-09-09T09:56:49;0.90;;;0.90;;
5620;SDS011;2832;50.864;12.186;2022-09-09T09:59:33;0.90;;;0.90;;
5620;SDS011;2832;50.864;12.186;2022-09-09T10:02:15;0.90;;;0.90;;
5620;SDS011;2832;50.864;12.186;2022-09-09T10:05:12;0.90;;;0.90;;
5620;SDS011;2832;50.864;12.186;2022-09-09T10:10:50;0.90;;;0.90;;
5620;SDS011;2832;50.864;12.186;2022-09-09T10:14:01;0.90;;;0.90;;
5620;SDS011;2832;50.864;12.186;2022-09-09T10:16:46;0.90;;;0.90;;
5620;SDS011;2832;50.864;12.186;2022-09-09T10:19:30;0.80;;;0.80;;
5620;SDS011;2832;50.864;12.186;2022-09-09T10:28:16;0.77;;;0.77;;
5620;SDS011;2832;50.864;12.186;2022-09-09T10:31:04;0.90;;;0.90;;
5620;SDS011;2832;50.864;12.186;2022-09-09T10:34:01;0.90;;;0.90;;
5620;SDS011;2832;50.864;12.186;2022-09-09T10:36:51;0.90;;;0.90;;
5620;SDS011;2832;50.864;12.186;2022-09-09T10:39:46;0.90;;;0.90;;
5620;SDS011;2832;50.864;12.186;2022-09-09T10:42:35;0.90;;;0.90;;
5620;SDS011;2832;50.864;12.186;2022-09-09T10:45:10;0.80;;;0.80;;
5620;SDS011;2832;50.864;12.186;2022-09-09T10:48:03;0.80;;;0.80;;
5620;SDS011;2832;50.864;12.186;2022-09-09T10:51:01;0.90;;;0.90;;
5620;SDS011;2832;50.864;12.186;2022-09-09T10:54:15;0.90;;;0.90;;
5620;SDS011;2832;50.864;12.186;2022-09-09T10:57:00;0.80;;;0.80;;
5620;SDS011;2832;50.864;12.186;2022-09-09T10:59:57;0.83;;;0.83;;
5620;SDS011;2832;50.864;12.186;2022-09-09T11:02:35;0.90;;;0.90;;
5620;SDS011;2832;50.864;12.186;2022-09-09T11:05:20;0.80;;;0.80;;
5620;SDS011;2832;50.864;12.186;2022-09-09T11:08:04;0.80;;;0.80;;
5620;SDS011;2832;50.864;12.186;2022-09-09T11:10:50;0.80;;;0.80;;
5620;SDS011;2832;50.864;12.186;2022-09-09T11:13:35;0.83;;;0.83;;
5620;SDS011;2832;50.864;12.186;2022-09-09T11:16:24;0.90;;;0.90;;
5620;SDS011;2832;50.864;12.186;2022-09-09T11:19:12;0.80;;;0.80;;
5620;SDS011;2832;50.864;12.186;2022-09-09T11:21:49;0.90;;;0.90;;
5620;SDS011;2832;50.864;12.186;2022-09-09T11:24:28;0.80;;;0.80;;
5620;SDS011;2832;50.864;12.186;2022-09-09T11:27:09;0.80;;;0.80;;
5620;SDS011;2832;50.864;12.186;2022-09-09T11:29:51;0.20;;;0.20;;
5620;SDS011;2832;50.864;12.186;2022-09-09T11:36:02;0.20;;;0.20;;
5620;SDS011;2832;50.864;12.186;2022-09-09T11:39:02;0.10;;;0.10;;
5620;SDS011;2832;50.864;12.186;2022-09-09T11:41:46;0.10;;;0.10;;
5620;SDS011;2832;50.864;12.186;2022-09-09T11:44:17;0.20;;;0.20;;
5620;SDS011;2832;50.864;12.186;2022-09-09T11:46:50;0.10;;;0.10;;
5620;SDS011;2832;50.864;12.186;2022-09-09T11:49:39;0.23;;;0.23;;
5620;SDS011;2832;50.864;12.186;2022-09-09T11:52:20;0.10;;;0.10;;
5620;SDS011;2832;50.864;12.186;2022-09-09T11:54:54;0.10;;;0.10;;
5620;SDS011;2832;50.864;12.186;2022-09-09T11:57:39;0.70;;;0.70;;
5620;SDS011;2832;50.864;12.186;2022-09-09T12:03:01;0.80;;;0.80;;
5620;SDS011;2832;50.864;12.186;2022-09-09T12:05:42;0.80;;;0.80;;
5620;SDS011;2832;50.864;12.186;2022-09-09T12:08:16;0.80;;;0.80;;
5620;SDS011;2832;50.864;12.186;2022-09-09T12:10:53;0.80;;;0.80;;
5620;SDS011;2832;50.864;12.186;2022-09-09T12:13:24;0.90;;;0.90;;
5620;SDS011;2832;50.864;12.186;2022-09-09T12:15:57;0.80;;;0.80;;
5620;SDS011;2832;50.864;12.186;2022-09-09T12:18:34;0.80;;;0.80;;
5620;SDS011;2832;50.864;12.186;2022-09-09T12:21:14;0.80;;;0.80;;
5620;SDS011;2832;50.864;12.186;2022-09-09T12:23:52;0.80;;;0.80;;
5620;SDS011;2832;50.864;12.186;2022-09-09T12:26:31;0.80;;;0.80;;
5620;SDS011;2832;50.864;12.186;2022-09-09T12:29:14;0.90;;;0.90;;
5620;SDS011;2832;50.864;12.186;2022-09-09T12:31:56;0.80;;;0.80;;
5620;SDS011;2832;50.864;12.186;2022-09-09T12:34:39;0.90;;;0.90;;
5620;SDS011;2832;50.864;12.186;2022-09-09T12:37:16;0.80;;;0.80;;
5620;SDS011;2832;50.864;12.186;2022-09-09T12:39:58;0.90;;;0.90;;
5620;SDS011;2832;50.864;12.186;2022-09-09T12:42:48;0.80;;;0.80;;
5620;SDS011;2832;50.864;12.186;2022-09-09T12:45:31;0.90;;;0.90;;
5620;SDS011;2832;50.864;12.186;2022-09-09T12:48:09;0.90;;;0.90;;
5620;SDS011;2832;50.864;12.186;2022-09-09T12:53:31;0.80;;;0.80;;
5620;SDS011;2832;50.864;12.186;2022-09-09T12:56:06;0.80;;;0.80;;
5620;SDS011;2832;50.864;12.186;2022-09-09T12:58:39;0.80;;;0.80;;
5620;SDS011;2832;50.864;12.186;2022-09-09T13:01:20;0.80;;;0.80;;
5620;SDS011;2832;50.864;12.186;2022-09-09T13:03:52;0.90;;;0.90;;
5620;SDS011;2832;50.864;12.186;2022-09-09T13:06:22;0.80;;;0.80;;
5620;SDS011;2832;50.864;12.186;2022-09-09T13:09:02;0.73;;;0.73;;
5620;SDS011;2832;50.864;12.186;2022-09-09T13:14:19;0.80;;;0.80;;
5620;SDS011;2832;50.864;12.186;2022-09-09T13:17:00;0.80;;;0.80;;
5620;SDS011;2832;50.864;12.186;2022-09-09T13:19:38;0.77;;;0.77;;
5620;SDS011;2832;50.864;12.186;2022-09-09T13:22:12;0.80;;;0.80;;
5620;SDS011;2832;50.864;12.186;2022-09-09T13:24:44;0.90;;;0.90;;
5620;SDS011;2832;50.864;12.186;2022-09-09T13:27:24;0.83;;;0.83;;
5620;SDS011;2832;50.864;12.186;2022-09-09T13:30:19;0.73;;;0.73;;
5620;SDS011;2832;50.864;12.186;2022-09-09T13:33:00;0.80;;;0.80;;
5620;SDS011;2832;50.864;12.186;2022-09-09T13:35:35;0.80;;;0.80;;
5620;SDS011;2832;50.864;12.186;2022-09-09T13:38:14;0.90;;;0.90;;
5620;SDS011;2832;50.864;12.186;2022-09-09T13:40:58;0.80;;;0.80;;
5620;SDS011;2832;50.864;12.186;2022-09-09T13:43:36;0.80;;;0.80;;
5620;SDS011;2832;50.864;12.186;2022-09-09T13:46:24;0.80;;;0.80;;
5620;SDS011;2832;50.864;12.186;2022-09-09T13:48:58;0.80;;;0.80;;
5620;SDS011;2832;50.864;12.186;2022-09-09T13:51:38;0.70;;;0.70;;
5620;SDS011;2832;50.864;12.186;2022-09-09T13:54:13;0.80;;;0.80;;
5620;SDS011;2832;50.864;12.186;2022-09-09T13:56:45;0.90;;;0.90;;
5620;SDS011;2832;50.864;12.186;2022-09-09T13:59:19;0.80;;;0.80;;
5620;SDS011;2832;50.864;12.186;2022-09-09T14:01:56;0.80;;;0.80;;
5620;SDS011;2832;50.864;12.186;2022-09-09T14:04:30;0.80;;;0.80;;
5620;SDS011;2832;50.864;12.186;2022-09-09T14:07:00;0.80;;;0.80;;
5620;SDS011;2832;50.864;12.186;2022-09-09T14:09:29;0.80;;;0.80;;
5620;SDS011;2832;50.864;12.186;2022-09-09T14:12:11;0.80;;;0.80;;
5620;SDS011;2832;50.864;12.186;2022-09-09T14:14:39;0.80;;;0.80;;
5620;SDS011;2832;50.864;12.186;2022-09-09T14:17:17;0.80;;;0.80;;
5620;SDS011;2832;50.864;12.186;2022-09-09T14:20:02;0.80;;;0.80;;
5620;SDS011;2832;50.864;12.186;2022-09-09T14:22:38;0.80;;;0.80;;
5620;SDS011;2832;50.864;12.186;2022-09-09T14:25:15;0.80;;;0.80;;
5620;SDS011;2832;50.864;12.186;2022-09-09T14:27:46;0.80;;;0.80;;
5620;SDS011;2832;50.864;12.186;2022-09-09T14:30:17;0.80;;;0.80;;
5620;SDS011;2832;50.864;12.186;2022-09-09T14:32:46;0.80;;;0.80;;
5620;SDS011;2832;50.864;12.186;2022-09-09T14:35:27;0.80;;;0.80;;
5620;SDS011;2832;50.864;12.186;2022-09-09T14:38:10;0.80;;;0.80;;
5620;SDS011;2832;50.864;12.186;2022-09-09T14:40:54;0.80;;;0.80;;
5620;SDS011;2832;50.864;12.186;2022-09-09T14:43:38;0.80;;;0.80;;
5620;SDS011;2832;50.864;12.186;2022-09-09T14:46:07;0.80;;;0.80;;
5620;SDS011;2832;50.864;12.186;2022-09-09T14:48:42;0.80;;;0.80;;
5620;SDS011;2832;50.864;12.186;2022-09-09T14:54:33;0.80;;;0.80;;
5620;SDS011;2832;50.864;12.186;2022-09-09T14:57:08;0.70;;;0.70;;
5620;SDS011;2832;50.864;12.186;2022-09-09T14:59:38;0.70;;;0.70;;
5620;SDS011;2832;50.864;12.186;2022-09-09T15:02:13;0.73;;;0.73;;
5620;SDS011;2832;50.864;12.186;2022-09-09T15:04:58;0.90;;;0.90;;
5620;SDS011;2832;50.864;12.186;2022-09-09T15:07:30;0.80;;;0.80;;
5620;SDS011;2832;50.864;12.186;2022-09-09T15:10:30;0.80;;;0.80;;
5620;SDS011;2832;50.864;12.186;2022-09-09T15:13:17;0.90;;;0.90;;
5620;SDS011;2832;50.864;12.186;2022-09-09T15:16:22;0.80;;;0.80;;
5620;SDS011;2832;50.864;12.186;2022-09-09T15:18:58;0.70;;;0.70;;
5620;SDS011;2832;50.864;12.186;2022-09-09T15:21:35;0.80;;;0.80;;
5620;SDS011;2832;50.864;12.186;2022-09-09T15:24:22;0.90;;;0.90;;
5620;SDS011;2832;50.864;12.186;2022-09-09T15:26:55;0.80;;;0.80;;
5620;SDS011;2832;50.864;12.186;2022-09-09T15:29:30;0.80;;;0.80;;
5620;SDS011;2832;50.864;12.186;2022-09-09T15:35:02;0.80;;;0.80;;
5620;SDS011;2832;50.864;12.186;2022-09-09T15:37:42;0.90;;;0.90;;
5620;SDS011;2832;50.864;12.186;2022-09-09T15:40:22;0.80;;;0.80;;
5620;SDS011;2832;50.864;12.186;2022-09-09T15:42:59;0.73;;;0.73;;
5620;SDS011;2832;50.864;12.186;2022-09-09T15:52:00;0.80;;;0.80;;
5620;SDS011;2832;50.864;12.186;2022-09-09T15:54:37;0.80;;;0.80;;
5620;SDS011;2832;50.864;12.186;2022-09-09T15:57:42;0.80;;;0.80;;
5620;SDS011;2832;50.864;12.186;2022-09-09T16:00:32;0.90;;;0.90;;
5620;SDS011;2832;50.864;12.186;2022-09-09T16:03:05;0.73;;;0.73;;
5620;SDS011;2832;50.864;12.186;2022-09-09T16:05:35;0.70;;;0.70;;
5620;SDS011;2832;50.864;12.186;2022-09-09T16:08:07;0.80;;;0.80;;
5620;SDS011;2832;50.864;12.186;2022-09-09T16:10:43;0.80;;;0.80;;
5620;SDS011;2832;50.864;12.186;2022-09-09T16:13:12;0.80;;;0.80;;
5620;SDS011;2832;50.864;12.186;2022-09-09T16:15:59;0.80;;;0.80;;
5620;SDS011;2832;50.864;12.186;2022-09-09T16:19:19;0.80;;;0.80;;
5620;SDS011;2832;50.864;12.186;2022-09-09T16:24:40;0.80;;;0.80;;
5620;SDS011;2832;50.864;12.186;2022-09-09T16:27:29;0.90;;;0.90;;
5620;SDS011;2832;50.864;12.186;2022-09-09T16:30:07;0.90;;;0.90;;
5620;SDS011;2832;50.864;12.186;2022-09-09T16:32:45;0.80;;;0.80;;
5620;SDS011;2832;50.864;12.186;2022-09-09T16:42:06;0.80;;;0.80;;
5620;SDS011;2832;50.864;12.186;2022-09-09T16:44:39;0.90;;;0.90;;
5620;SDS011;2832;50.864;12.186;2022-09-09T16:47:10;0.80;;;0.80;;
5620;SDS011;2832;50.864;12.186;2022-09-09T16:49:54;0.80;;;0.80;;
5620;SDS011;2832;50.864;12.186;2022-09-09T16:52:37;0.73;;;0.73;;
5620;SDS011;2832;50.864;12.186;2022-09-09T16:58:53;0.80;;;0.80;;
5620;SDS011;2832;50.864;12.186;2022-09-09T17:02:11;0.80;;;0.80;;
5620;SDS011;2832;50.864;12.186;2022-09-09T17:05:13;0.70;;;0.70;;
5620;SDS011;2832;50.864;12.186;2022-09-09T17:08:12;0.80;;;0.80;;
5620;SDS011;2832;50.864;12.186;2022-09-09T17:11:02;0.80;;;0.80;;
5620;SDS011;2832;50.864;12.186;2022-09-09T17:24:59;0.90;;;0.90;;
5620;SDS011;2832;50.864;12.186;2022-09-09T17:27:44;0.87;;;0.87;;
5620;SDS011;2832;50.864;12.186;2022-09-09T17:40:41;0.80;;;0.80;;
5620;SDS011;2832;50.864;12.186;2022-09-09T17:43:41;0.80;;;0.80;;
5620;SDS011;2832;50.864;12.186;2022-09-09T17:59:34;0.70;;;0.70;;
5620;SDS011;2832;50.864;12.186;2022-09-09T18:02:09;0.80;;;0.80;;
5620;SDS011;2832;50.864;12.186;2022-09-09T18:05:04;0.80;;;0.80;;
5620;SDS011;2832;50.864;12.186;2022-09-09T18:07:38;0.80;;;0.80;;
5620;SDS011;2832;50.864;12.186;2022-09-09T18:10:30;0.80;;;0.80;;
5620;SDS011;2832;50.864;12.186;2022-09-09T18:13:04;0.80;;;0.80;;
5620;SDS011;2832;50.864;12.186;2022-09-09T18:16:01;0.80;;;0.80;;
5620;SDS011;2832;50.864;12.186;2022-09-09T18:18:44;0.80;;;0.80;;
5620;SDS011;2832;50.864;12.186;2022-09-09T18:24:35;0.80;;;0.80;;
5620;SDS011;2832;50.864;12.186;2022-09-09T18:27:23;0.80;;;0.80;;
5620;SDS011;2832;50.864;12.186;2022-09-09T18:30:19;0.80;;;0.80;;
5620;SDS011;2832;50.864;12.186;2022-09-09T18:43:39;0.80;;;0.80;;
5620;SDS011;2832;50.864;12.186;2022-09-09T18:46:35;0.70;;;0.70;;
5620;SDS011;2832;50.864;12.186;2022-09-09T18:49:35;0.70;;;0.70;;
5620;SDS011;2832;50.864;12.186;2022-09-09T20:50:00;0.80;;;0.80;;
5620;SDS011;2832;50.864;12.186;2022-09-09T20:52:45;0.80;;;0.80;;
5620;SDS011;2832;50.864;12.186;2022-09-09T20:55:29;0.80;;;0.80;;
5620;SDS011;2832;50.864;12.186;2022-09-09T20:58:04;0.90;;;0.90;;
5620;SDS011;2832;50.864;12.186;2022-09-09T21:00:32;0.80;;;0.80;;
5620;SDS011;2832;50.864;12.186;2022-09-09T21:03:02;0.80;;;0.80;;
5620;SDS011;2832;50.864;12.186;2022-09-09T21:09:05;0.90;;;0.90;;
5620;SDS011;2832;50.864;12.186;2022-09-09T21:11:33;0.80;;;0.80;;
5620;SDS011;2832;50.864;12.186;2022-09-09T21:14:03;0.80;;;0.80;;
5620;SDS011;2832;50.864;12.186;2022-09-09T21:16:34;0.80;;;0.80;;
5620;SDS011;2832;50.864;12.186;2022-09-09T21:19:05;0.80;;;0.80;;
5620;SDS011;2832;50.864;12.186;2022-09-09T21:21:34;0.83;;;0.83;;
5620;SDS011;2832;50.864;12.186;2022-09-09T21:24:03;0.80;;;0.80;;
5620;SDS011;2832;50.864;12.186;2022-09-09T21:26:33;0.80;;;0.80;;
5620;SDS011;2832;50.864;12.186;2022-09-09T21:29:02;0.80;;;0.80;;
5620;SDS011;2832;50.864;12.186;2022-09-09T21:31:30;0.80;;;0.80;;
5620;SDS011;2832;50.864;12.186;2022-09-09T21:34:00;0.80;;;0.80;;
5620;SDS011;2832;50.864;12.186;2022-09-09T21:36:31;0.80;;;0.80;;
5620;SDS011;2832;50.864;12.186;2022-09-09T21:38:59;0.77;;;0.77;;
5620;SDS011;2832;50.864;12.186;2022-09-09T21:41:30;0.73;;;0.73;;
5620;SDS011;2832;50.864;12.186;2022-09-09T21:44:01;0.87;;;0.87;;
5620;SDS011;2832;50.864;12.186;2022-09-09T21:46:31;0.80;;;0.80;;
5620;SDS011;2832;50.864;12.186;2022-09-09T21:48:59;0.80;;;0.80;;
5620;SDS011;2832;50.864;12.186;2022-09-09T21:51:30;0.80;;;0.80;;
5620;SDS011;2832;50.864;12.186;2022-09-09T22:53:41;0.80;;;0.80;;
5620;SDS011;2832;50.864;12.186;2022-09-09T22:56:17;0.80;;;0.80;;
5620;SDS011;2832;50.864;12.186;2022-09-09T22:58:51;0.90;;;0.90;;
5620;SDS011;2832;50.864;12.186;2022-09-09T23:01:23;0.80;;;0.80;;
5620;SDS011;2832;50.864;12.186;2022-09-09T23:03:56;0.90;;;0.90;;
5620;SDS011;2832;50.864;12.186;2022-09-09T23:06:27;0.83;;;0.83;;
5620;SDS011;2832;50.864;12.186;2022-09-09T23:09:00;0.80;;;0.80;;
5620;SDS011;2832;50.864;12.186;2022-09-09T23:11:38;0.80;;;0.80;;
5620;SDS011;2832;50.864;12.186;2022-09-09T23:14:08;0.80;;;0.80;;
5620;SDS011;2832;50.864;12.186;2022-09-09T23:16:41;0.80;;;0.80;;
5620;SDS011;2832;50.864;12.186;2022-09-09T23:19:17;0.80;;;0.80;;
5620;SDS011;2832;50.864;12.186;2022-09-09T23:21:48;0.80;;;0.80;;
5620;SDS011;2832;50.864;12.186;2022-09-09T23:27:19;0.90;;;0.90;;
5620;SDS011;2832;50.864;12.186;2022-09-09T23:29:49;0.73;;;0.73;;
5620;SDS011;2832;50.864;12.186;2022-09-09T23:32:30;0.80;;;0.80;;
5620;SDS011;2832;50.864;12.186;2022-09-09T23:34:59;0.80;;;0.80;;
5620;SDS011;2832;50.864;12.186;2022-09-09T23:37:39;0.80;;;0.80;;
5620;SDS011;2832;50.864;12.186;2022-09-09T23:40:19;0.80;;;0.80;;
5620;SDS011;2832;50.864;12.186;2022-09-09T23:42:50;0.80;;;0.80;;
5620;SDS011;2832;50.864;12.186;2022-09-09T23:45:22;0.80;;;0.80;;
5620;SDS011;2832;50.864;12.186;2022-09-09T23:47:49;0.83;;;0.83;;
5620;SDS011;2832;50.864;12.186;2022-09-09T23:50:20;0.80;;;0.80;;
5620;SDS011;2832;50.864;12.186;2022-09-09T23:52:51;0.80;;;0.80;;
